Time;durP1;ratioP1;P1;durP2;ratioP2;P2;SDS_P1;SDS_P2;PMS_P1;PMS_P2;Temp;Humidity;BMP_temperature;BMP_pressure;BME280_temperature;BME280_humidity;BME280_pressure;Samples;Min_cycle;Max_cycle;Signal;HPM_P1;HPM_P2
2022/06/10 00:03:02;;;;;;;11.80;6.30;;;;;;;16.30;80.22;98411.40;433430;1270;108879;-41
2022/06/10 00:13:09;;;;;;;8.40;5.80;;;;;;;16.20;80.23;98410.95;433209;1269;98819;-43
2022/06/10 00:33:23;;;;;;;11.90;6.00;;;;;;;16.10;80.44;98434.30;433496;1267;110206;-40
2022/06/10 00:43:34;;;;;;;8.60;6.70;;;;;;;16.07;80.51;98438.45;433452;1267;98021;-44
2022/06/10 00:53:42;;;;;;;10.10;7.20;;;;;;;15.98;80.40;98456.08;433559;1267;108821;-41
2022/06/10 01:03:50;;;;;;;8.70;6.50;;;;;;;15.91;80.62;98469.90;433488;1267;99087;-43
2022/06/10 01:13:55;;;;;;;7.50;6.70;;;;;;;16.07;81.02;98465.23;433687;1267;112076;-41
2022/06/10 01:24:38;;;;;;;8.40;7.00;;;;;;;16.15;80.79;98455.46;434492;1257;108920;-41
2022/06/10 01:34:57;;;;;;;11.00;7.40;;;;;;;16.16;80.93;98463.67;433697;1267;99242;-42
2022/06/10 01:45:03;;;;;;;9.20;7.80;;;;;;;16.04;80.74;98467.73;433826;1267;107762;-40
2022/06/10 01:55:15;;;;;;;12.10;8.20;;;;;;;16.01;81.06;98478.67;433716;1267;99347;-39
2022/06/10 02:05:24;;;;;;;11.80;8.60;;;;;;;15.98;81.05;98492.13;433793;1267;112505;-40
2022/06/10 02:15:36;;;;;;;11.10;9.30;;;;;;;15.95;81.18;98499.23;433760;1267;108521;-40
2022/06/10 02:25:49;;;;;;;17.00;13.30;;;;;;;15.97;81.25;98500.29;433560;1267;99269;-41
2022/06/10 02:35:54;;;;;;;22.80;17.00;;;;;;;15.93;81.46;98504.94;433482;1267;108655;-41
2022/06/10 02:46:02;;;;;;;23.70;17.60;;;;;;;15.89;81.64;98522.11;433686;1267;99241;-41
2022/06/10 02:56:18;;;;;;;28.20;20.60;;;;;;;15.91;82.02;98531.13;433548;1267;112676;-42
2022/06/10 03:06:23;;;;;;;31.00;21.40;;;;;;;16.00;82.32;98550.15;433634;1268;107787;-42
2022/06/10 03:16:32;;;;;;;29.70;23.00;;;;;;;16.08;82.42;98558.36;433697;1267;98943;-41
2022/06/10 03:36:48;;;;;;;35.80;25.40;;;;;;;16.30;83.10;98583.39;433544;1267;99249;-41
2022/06/10 03:46:56;;;;;;;34.70;24.60;;;;;;;16.42;83.12;98591.55;433741;1266;112110;-43
2022/06/10 03:57:03;;;;;;;32.60;25.70;;;;;;;16.54;83.26;98601.30;433710;1267;108896;-40
2022/06/10 04:07:13;;;;;;;36.80;25.70;;;;;;;16.70;83.49;98610.48;433701;1267;99149;-45
2022/06/10 04:17:21;;;;;;;34.90;25.90;;;;;;;16.79;83.21;98614.49;433710;1265;108636;-44
2022/06/10 04:27:28;;;;;;;32.20;24.60;;;;;;;16.92;83.44;98623.42;433528;1268;98837;-41
2022/06/10 04:37:36;;;;;;;30.60;22.20;;;;;;;17.03;83.29;98634.41;433756;1267;112471;-40
2022/06/10 04:47:44;;;;;;;28.70;21.90;;;;;;;16.99;83.41;98646.59;433686;1267;108763;-42
2022/06/10 04:57:53;;;;;;;27.60;20.20;;;;;;;16.99;83.77;98657.44;433559;1267;99251;-41
2022/06/10 05:08:00;;;;;;;27.30;21.80;;;;;;;16.93;83.82;98669.64;433652;1267;108828;-41
2022/06/10 05:18:08;;;;;;;27.90;21.20;;;;;;;16.84;84.22;98683.33;433767;1267;99266;-44
2022/06/10 05:28:17;;;;;;;26.40;21.50;;;;;;;16.79;84.76;98687.98;433666;1267;113015;-41
2022/06/10 05:38:24;;;;;;;30.10;21.50;;;;;;;16.78;85.33;98706.45;433483;1268;108803;-41
2022/06/10 05:48:31;;;;;;;30.30;22.10;;;;;;;16.76;85.65;98724.81;433715;1265;98965;-42
2022/06/10 05:58:39;;;;;;;30.40;23.60;;;;;;;16.74;85.85;98736.78;433607;1267;107826;-41
2022/06/10 06:18:53;;;;;;;25.20;19.80;;;;;;;16.95;86.14;98753.66;433694;1267;112364;-38
2022/06/10 06:29:00;;;;;;;23.30;19.80;;;;;;;17.12;85.96;98767.83;433667;1267;107084;-42
2022/06/10 06:39:08;;;;;;;24.40;19.70;;;;;;;17.04;86.15;98775.23;433646;1267;98955;-41
2022/06/10 06:49:19;;;;;;;25.70;20.90;;;;;;;17.06;86.47;98789.57;433525;1267;108798;-40
2022/06/10 06:59:25;;;;;;;24.00;21.00;;;;;;;17.06;86.26;98812.86;433469;1267;98910;-40
2022/06/10 07:09:32;;;;;;;23.40;19.10;;;;;;;17.01;86.47;98820.48;433687;1267;112455;-41
2022/06/10 07:19:40;;;;;;;26.50;21.20;;;;;;;16.93;86.12;98824.39;433537;1267;109076;-41
2022/06/10 07:29:48;;;;;;;30.30;24.40;;;;;;;16.94;86.10;98834.39;433587;1267;98047;-41
2022/06/10 07:39:57;;;;;;;27.00;21.50;;;;;;;16.95;86.35;98845.23;433563;1267;109213;-40
2022/06/10 08:00:12;;;;;;;19.80;16.70;;;;;;;17.03;86.41;98861.21;433423;1267;112473;-41
2022/06/10 08:10:24;;;;;;;21.70;16.60;;;;;;;17.06;86.35;98867.52;433493;1267;109255;-42
2022/06/10 08:30:58;;;;;;;18.90;16.40;;;;;;;17.39;85.83;98887.95;433299;1269;107802;-41
2022/06/10 08:41:07;;;;;;;19.60;15.70;;;;;;;17.28;85.73;98893.02;433739;1268;99267;-40
2022/06/10 08:51:14;;;;;;;20.40;15.60;;;;;;;17.47;85.68;98901.91;433860;1268;112410;-41
2022/06/10 09:01:23;;;;;;;18.00;14.70;;;;;;;17.59;85.28;98908.22;433595;1267;108774;-41
2022/06/10 09:11:29;;;;;;;17.80;14.80;;;;;;;17.71;85.08;98914.54;433810;1268;98026;-40
2022/06/10 09:21:36;;;;;;;16.20;14.50;;;;;;;17.94;84.87;98928.58;433708;1267;108845;-40
2022/06/10 09:31:42;;;;;;;20.00;14.90;;;;;;;18.12;84.53;98927.11;433530;1267;463617;-40
2022/06/10 09:41:59;;;;;;;15.00;13.50;;;;;;;18.55;84.09;98930.08;433691;1268;112546;-40
2022/06/10 09:52:06;;;;;;;18.10;14.00;;;;;;;19.08;83.60;98926.84;433721;1268;108851;-41
2022/06/10 10:02:26;;;;;;;12.50;10.70;;;;;;;19.76;82.70;98932.45;433679;1268;99245;-43
2022/06/10 10:12:36;;;;;;;14.30;12.00;;;;;;;20.15;80.88;98938.27;433820;1267;108192;-43
2022/06/10 10:23:02;;;;;;;11.80;10.70;;;;;;;20.45;79.40;98941.83;433829;1267;99283;-41
2022/06/10 10:33:13;;;;;;;10.50;9.20;;;;;;;21.11;79.02;98939.58;433639;1265;112473;-42
2022/06/10 10:43:24;;;;;;;9.90;8.90;;;;;;;21.86;77.11;98939.50;433694;1267;108878;-40
2022/06/10 10:53:29;;;;;;;10.10;8.90;;;;;;;21.84;75.58;98952.52;433699;1268;98077;-42
2022/06/10 11:13:51;;;;;;;7.70;6.90;;;;;;;21.50;73.96;98962.73;433658;1268;99253;-40
2022/06/10 11:24:00;;;;;;;11.30;8.20;;;;;;;21.67;72.43;98955.53;433983;1268;111262;-40
2022/06/10 11:34:14;;;;;;;11.90;8.50;;;;;;;21.73;72.29;98958.98;433770;1268;109195;-39
2022/06/10 11:44:26;;;;;;;9.50;8.40;;;;;;;21.80;72.03;98957.15;433719;1268;97949;-44
2022/06/10 11:54:34;;;;;;;10.10;7.50;;;;;;;21.53;71.58;98968.35;433756;1268;108793;-40
2022/06/10 12:04:44;;;;;;;7.90;7.30;;;;;;;21.49;71.79;98964.27;433598;1267;99251;-40
2022/06/10 12:35:09;;;;;;;6.30;5.70;;;;;;;21.32;70.87;98956.61;433614;1267;98869;-40
2022/06/10 12:45:20;;;;;;;9.20;6.00;;;;;;;21.54;70.65;98954.77;433778;1267;108888;-40
2022/06/10 12:55:31;;;;;;;10.00;5.60;;;;;;;21.63;70.36;98957.77;433636;1267;99301;-42
2022/06/10 13:05:45;;;;;;;5.30;4.80;;;;;;;21.86;69.92;98954.52;433994;1267;111681;-41
2022/06/10 13:15:54;;;;;;;6.60;5.20;;;;;;;21.77;69.37;98950.09;433702;1267;108841;-41
2022/06/10 13:36:24;;;;;;;4.60;3.00;;;;;;;21.62;69.29;98944.58;433807;1268;109046;-39
2022/06/10 13:46:33;;;;;;;4.90;3.00;;;;;;;21.25;68.92;98947.83;433820;1268;99334;-40
2022/06/10 13:56:42;;;;;;;3.80;3.30;;;;;;;20.89;69.45;98946.61;433795;1268;112695;-44
2022/06/10 14:06:50;;;;;;;4.20;3.40;;;;;;;20.83;69.79;98957.54;433743;1268;108772;-41
2022/06/10 14:27:09;;;;;;;3.30;3.10;;;;;;;20.75;70.39;98958.55;433784;1268;108790;-42
2022/06/10 14:47:32;;;;;;;7.70;4.20;;;;;;;20.71;70.41;98956.98;433758;1268;112387;-41
2022/06/10 14:57:51;;;;;;;2.80;2.50;;;;;;;20.74;70.51;98947.16;433771;1268;108845;-45
2022/06/10 15:08:00;;;;;;;3.60;3.00;;;;;;;20.65;70.32;98945.46;433581;1268;98886;-41
2022/06/10 15:18:09;;;;;;;3.30;3.00;;;;;;;20.50;70.02;98949.01;433897;1268;108882;-40
2022/06/10 15:28:19;;;;;;;2.70;2.50;;;;;;;20.40;69.38;98955.10;433762;1267;99241;-41
2022/06/10 15:48:56;;;;;;;3.80;3.10;;;;;;;20.35;69.12;98954.86;432951;1269;107215;-41
2022/06/10 15:59:03;;;;;;;6.80;4.90;;;;;;;20.50;69.21;98963.58;433947;1268;98856;-42
2022/06/10 16:09:11;;;;;;;4.50;3.70;;;;;;;20.65;69.19;98964.77;433641;1268;108859;-42
2022/06/10 16:19:18;;;;;;;4.80;3.80;;;;;;;20.73;68.76;98973.08;433690;1268;99366;-40
2022/06/10 16:29:30;;;;;;;4.50;4.10;;;;;;;20.77;68.31;98977.88;433954;1267;112437;-41
2022/06/10 16:39:38;;;;;;;2.60;2.40;;;;;;;20.95;68.17;98974.11;433726;1268;108766;-41
2022/06/10 16:49:47;;;;;;;3.00;2.70;;;;;;;21.21;67.73;98984.30;434028;1268;99216;-40
2022/06/10 16:59:55;;;;;;;3.60;2.60;;;;;;;21.19;67.11;98984.42;433956;1268;108791;-41
2022/06/10 17:10:05;;;;;;;3.60;2.90;;;;;;;21.00;66.84;98984.15;433788;1268;98874;-42
2022/06/10 17:20:22;;;;;;;4.50;3.10;;;;;;;20.69;66.60;98985.83;434166;1268;112283;-45
2022/06/10 17:30:28;;;;;;;11.90;4.90;;;;;;;20.49;66.67;98981.86;433952;1267;107662;-41
2022/06/10 17:40:34;;;;;;;7.50;4.30;;;;;;;20.43;66.99;98978.98;433852;1268;98952;-41
2022/06/10 17:50:42;;;;;;;12.90;6.30;;;;;;;20.34;66.76;98983.44;433996;1268;108778;-42
2022/06/10 18:00:50;;;;;;;7.10;4.10;;;;;;;20.20;66.75;98985.24;434050;1268;99321;-42
2022/06/10 18:11:00;;;;;;;4.90;3.30;;;;;;;19.97;66.53;99001.29;433778;1267;111257;-40
2022/06/10 18:21:05;;;;;;;5.50;3.50;;;;;;;19.69;66.67;99007.48;433705;1267;108706;-42
2022/06/10 18:31:18;;;;;;;4.80;3.30;;;;;;;19.46;66.86;99028.42;433829;1267;99359;-43
2022/06/10 18:41:26;;;;;;;6.40;3.60;;;;;;;19.26;67.58;99043.34;433598;1268;108842;-42
2022/06/10 18:51:36;;;;;;;6.60;3.50;;;;;;;18.96;68.07;99062.28;433940;1268;99289;-43
2022/06/10 19:01:45;;;;;;;6.90;3.70;;;;;;;18.47;68.43;99065.50;433660;1267;112882;-44
2022/06/10 19:11:55;;;;;;;7.50;3.60;;;;;;;18.08;69.03;99076.00;433812;1267;108822;-41
2022/06/10 19:22:13;;;;;;;17.70;7.40;;;;;;;17.65;69.44;99088.89;433751;1267;99223;-44
2022/06/10 19:42:29;;;;;;;15.30;7.50;;;;;;;17.16;70.81;99115.82;433574;1268;98268;-41
2022/06/10 19:52:39;;;;;;;14.20;8.60;;;;;;;16.99;71.44;99118.57;433720;1267;110951;-39
2022/06/10 20:02:47;;;;;;;18.50;10.00;;;;;;;16.72;71.57;99130.68;433725;1268;108944;-41
2022/06/10 20:12:55;;;;;;;13.00;7.80;;;;;;;16.32;71.71;99131.27;433865;1268;99260;-41
2022/06/10 20:23:04;;;;;;;11.00;8.10;;;;;;;16.16;72.37;99128.05;433660;1267;108059;-41
2022/06/10 20:33:12;;;;;;;11.70;7.00;;;;;;;16.16;72.87;99125.76;433697;1268;99238;-40
2022/06/10 20:43:21;;;;;;;16.60;8.00;;;;;;;15.84;72.71;99129.61;433629;1267;112404;-41
2022/06/10 20:53:27;;;;;;;;;;;;;;;15.64;73.30;99135.65;433612;1267;108842;-41
2022/06/10 21:07:27;;;;;;;22.10;8.90;;;;;;;15.57;73.73;99123.48;433786;1267;98942;-40
2022/06/10 21:14:07;;;;;;;14.30;9.70;;;;;;;15.61;74.34;99119.83;433474;1270;109547;-40
2022/06/10 21:24:17;;;;;;;15.40;9.50;;;;;;;15.32;74.04;99123.61;433854;1267;330543;-41
2022/06/10 21:34:23;;;;;;;;;;;;;;;14.99;74.09;99126.17;433652;1267;112025;-44
2022/06/10 21:44:31;;;;;;;14.10;8.70;;;;;;;14.64;74.17;99127.02;433561;1270;108671;-42
2022/06/10 21:54:38;;;;;;;18.80;8.80;;;;;;;14.51;74.54;99123.25;433827;1267;98841;-40
2022/06/10 22:04:43;;;;;;;17.60;8.80;;;;;;;14.68;75.11;99123.02;433589;1267;108715;-41
2022/06/10 22:14:50;;;;;;;10.50;7.40;;;;;;;14.71;75.08;99118.35;433787;1267;98898;-42
2022/06/10 22:25:01;;;;;;;14.20;9.60;;;;;;;14.62;75.12;99112.88;433780;1267;112614;-42
2022/06/10 22:35:19;;;;;;;16.50;10.00;;;;;;;14.45;75.10;99114.48;433808;1267;109057;-43
2022/06/10 22:45:31;;;;;;;19.10;9.80;;;;;;;14.09;74.91;99123.77;433850;1267;98925;-39
2022/06/10 22:55:40;;;;;;;16.30;8.60;;;;;;;13.82;75.32;99129.05;433867;1267;108946;-41
2022/06/10 23:16:14;;;;;;;17.40;8.60;;;;;;;13.77;75.79;99138.85;433583;1267;112180;-42
2022/06/10 23:26:24;;;;;;;12.40;8.20;;;;;;;13.70;75.86;99135.17;433620;1267;108872;-40
2022/06/10 23:36:35;;;;;;;14.10;9.90;;;;;;;13.59;75.99;99145.61;433739;1268;99201;-41
2022/06/10 23:57:08;;;;;;;11.50;7.80;;;;;;;13.58;76.61;99149.05;433752;1267;99312;-42
